MA40 weather

Diesel Dogs Seaplane Base
Gardner, Massachusetts, United States

Public forecast

Using degrees Fahrenheit for public forecast. Weather courtesy of forecast.io.

Closest aviation weather report (METAR) to Diesel Dogs Seaplane Base

Closest report is Fitchburg Municipal Airport, 9.3 nm (17.2 km) E. Retrieved 2020/08/05 15:52 UTC (1 hour ago):

KFIT 051552Z AUTO 26006KT 10SM BKN042 BKN060 29/18 A2999 RMK AO2 SLP154 T02890178

Closest aviation forecast (TAF) to Diesel Dogs Seaplane Base

Closest forecast is Worcester Regional Airport, 17.1 nm (31.6 km) SSE. Retrieved 2020/08/05 12:22 UTC (5 hours ago):

TAF KORH 051120Z 0512/0612 23007KT P6SM SKC FM051500 24006KT P6SM SCT050 FM060400 29004KT P6SM FEW250